Time;durP1;ratioP1;P1;durP2;ratioP2;P2;SDS_P1;SDS_P2;PMS_P1;PMS_P2;Temp;Humidity;BMP_temperature;BMP_pressure;BME280_temperature;BME280_humidity;BME280_pressure;Samples;Min_cycle;Max_cycle;Signal;HPM_P1;HPM_P2
2021/05/03 00:01:28;;;;;;;428.27;229.93;;;;;;;9.09;59.42;98726.19;5123754;27;20362;-62
2021/05/03 00:03:54;;;;;;;433.67;211.43;;;;;;;9.11;59.53;98737.28;5122291;27;20102;-62
2021/05/03 00:06:19;;;;;;;406.43;215.83;;;;;;;9.11;59.25;98744.09;5120660;28;20409;-62
2021/05/03 00:08:44;;;;;;;394.23;202.07;;;;;;;9.09;59.49;98746.66;5125266;28;20035;-62
2021/05/03 00:11:10;;;;;;;407.27;205.27;;;;;;;9.02;59.73;98739.94;5127224;28;20038;-62
2021/05/03 00:13:37;;;;;;;392.37;208.07;;;;;;;9.03;59.23;98754.41;5125048;28;20030;-62
2021/05/03 00:16:03;;;;;;;378.70;196.27;;;;;;;9.10;59.83;98745.81;5125827;28;20027;-62
2021/05/03 00:18:29;;;;;;;382.93;205.53;;;;;;;8.99;59.83;98745.09;5123908;28;20037;-62
2021/05/03 00:20:55;;;;;;;371.10;198.60;;;;;;;9.13;59.89;98755.13;5123218;28;20036;-61
2021/05/03 00:23:20;;;;;;;377.73;202.37;;;;;;;9.10;59.99;98752.63;5125756;28;20080;-62
2021/05/03 00:25:46;;;;;;;377.40;208.07;;;;;;;9.08;59.30;98759.50;5121684;28;20035;-62
2021/05/03 00:28:11;;;;;;;389.47;206.40;;;;;;;9.11;59.51;98754.34;5105187;28;20084;-62
2021/05/03 00:30:37;;;;;;;390.07;218.30;;;;;;;9.07;59.49;98750.97;5122362;27;20306;-61
2021/05/03 00:33:02;;;;;;;410.67;254.50;;;;;;;9.08;59.70;98762.88;5125403;27;20346;-62
2021/05/03 00:35:27;;;;;;;403.03;242.97;;;;;;;9.09;59.37;98768.81;5123452;28;20016;-62
2021/05/03 00:37:53;;;;;;;413.57;182.20;;;;;;;9.05;60.17;98777.41;5124115;28;20384;-62
2021/05/03 00:40:18;;;;;;;419.37;197.40;;;;;;;9.07;60.15;98773.13;5124345;28;20042;-62
2021/05/03 00:42:44;;;;;;;422.83;198.30;;;;;;;9.03;59.88;98764.66;5124975;28;20285;-62
2021/05/03 00:45:18;;;;;;;426.20;209.30;;;;;;;8.98;60.37;98779.19;5121853;28;20066;-62
2021/05/03 00:47:43;;;;;;;432.03;212.70;;;;;;;9.01;59.73;98770.63;5124124;28;20043;-62
2021/05/03 00:50:11;;;;;;;429.93;209.87;;;;;;;9.05;59.47;98777.41;5122595;28;20621;-62
2021/05/03 00:52:37;;;;;;;430.07;215.10;;;;;;;9.03;59.71;98787.66;5124838;28;20284;-62
2021/05/03 00:55:04;;;;;;;441.43;226.43;;;;;;;9.08;59.95;98792.75;5113491;28;20292;-61
2021/05/03 00:57:29;;;;;;;436.00;218.93;;;;;;;9.06;60.18;98799.56;5121398;28;20341;-62
2021/05/03 00:59:55;;;;;;;437.23;224.97;;;;;;;9.01;60.09;98802.16;5122712;28;20315;-62
2021/05/03 01:02:21;;;;;;;436.27;222.53;;;;;;;9.05;59.49;98797.84;5123668;28;20432;-62
2021/05/03 01:04:47;;;;;;;436.47;224.10;;;;;;;9.01;59.69;98803.88;5124070;28;20392;-62
2021/05/03 01:07:12;;;;;;;435.50;224.83;;;;;;;8.97;60.14;98815.00;5124354;28;20310;-62
2021/05/03 01:09:38;;;;;;;441.37;231.20;;;;;;;8.95;60.04;98814.19;5123461;28;20284;-62
2021/05/03 01:12:04;;;;;;;444.30;234.10;;;;;;;8.93;60.10;98813.31;5122017;27;20076;-62
2021/05/03 01:14:30;;;;;;;444.20;234.27;;;;;;;8.87;59.83;98808.28;5126645;27;20272;-62
2021/05/03 01:16:56;;;;;;;449.30;244.27;;;;;;;8.85;59.52;98818.53;5125264;27;20269;-62
2021/05/03 01:19:21;;;;;;;440.90;234.07;;;;;;;8.91;59.76;98825.28;5127811;27;20115;-62
2021/05/03 01:21:51;;;;;;;441.33;233.63;;;;;;;8.84;59.71;98826.19;5124223;27;20326;-61
2021/05/03 01:24:18;;;;;;;446.87;243.73;;;;;;;8.78;59.91;98849.28;5127269;27;20214;-61
2021/05/03 01:26:44;;;;;;;452.83;266.17;;;;;;;8.74;59.96;98838.22;5123455;27;20292;-61
2021/05/03 01:29:10;;;;;;;437.37;216.60;;;;;;;8.76;60.07;98851.81;5108375;27;20368;-60
2021/05/03 01:31:36;;;;;;;444.20;231.60;;;;;;;8.74;59.78;98839.94;5124548;27;20276;-60
2021/05/03 01:34:05;;;;;;;430.20;207.30;;;;;;;8.69;60.41;98847.63;5124876;27;20285;-60
2021/05/03 01:36:31;;;;;;;433.30;210.17;;;;;;;8.52;60.62;98845.22;5126974;27;20371;-61
2021/05/03 01:38:56;;;;;;;434.60;211.63;;;;;;;8.65;60.20;98869.81;5123018;27;20292;-61
2021/05/03 01:41:22;;;;;;;431.97;209.80;;;;;;;8.61;61.05;98859.63;5125865;27;20062;-61
2021/05/03 01:43:47;;;;;;;436.70;214.00;;;;;;;8.51;61.17;98868.22;5129449;27;20031;-61
2021/05/03 01:46:13;;;;;;;430.13;196.63;;;;;;;8.56;61.31;98861.38;5126449;27;20087;-61
2021/05/03 01:48:39;;;;;;;435.60;209.47;;;;;;;8.47;61.81;98869.94;5124609;27;20372;-60
2021/05/03 01:51:05;;;;;;;440.30;227.23;;;;;;;8.53;61.64;98864.78;5124397;27;20080;-61
2021/05/03 01:53:31;;;;;;;441.70;217.80;;;;;;;8.52;61.51;98867.34;5123904;27;20575;-61
2021/05/03 01:55:57;;;;;;;435.47;219.87;;;;;;;8.62;61.67;98864.69;5110491;27;20023;-61
2021/05/03 01:58:25;;;;;;;437.63;215.17;;;;;;;8.60;61.70;98863.88;5123299;27;20349;-61
2021/05/03 02:00:51;;;;;;;437.90;211.73;;;;;;;8.54;62.16;98858.81;5125603;27;20653;-61
2021/05/03 02:03:22;;;;;;;437.23;216.27;;;;;;;8.56;62.26;98854.56;5127123;27;20306;-60
2021/05/03 02:05:48;;;;;;;434.83;212.30;;;;;;;8.57;62.52;98860.50;5112328;28;20357;-60
2021/05/03 02:08:13;;;;;;;441.67;221.83;;;;;;;8.52;62.19;98854.59;5107692;28;20270;-60
2021/05/03 02:10:39;;;;;;;435.90;209.87;;;;;;;8.55;62.64;98852.84;5108953;28;20293;-60
2021/05/03 02:13:05;;;;;;;438.67;210.43;;;;;;;8.54;62.61;98855.41;5106737;28;20114;-61
2021/05/03 02:15:32;;;;;;;436.17;202.30;;;;;;;8.50;63.10;98861.38;5103913;28;20059;-61
2021/05/03 02:17:58;;;;;;;439.83;213.73;;;;;;;8.49;62.74;98859.69;5107967;28;20708;-61
2021/05/03 02:20:23;;;;;;;438.97;209.97;;;;;;;8.42;63.59;98870.81;5104744;28;20288;-61
2021/05/03 02:22:49;;;;;;;436.63;206.40;;;;;;;8.41;63.78;98874.22;5106675;28;20078;-61
2021/05/03 02:25:14;;;;;;;440.60;216.47;;;;;;;8.25;64.37;98873.44;5105311;28;20043;-61
2021/05/03 02:27:40;;;;;;;438.00;211.27;;;;;;;8.26;64.57;98878.56;5100641;28;20089;-61
2021/05/03 02:30:08;;;;;;;439.03;207.73;;;;;;;8.30;64.03;98871.75;5103150;28;20046;-61
2021/05/03 02:32:37;;;;;;;440.10;203.03;;;;;;;8.25;64.12;98871.75;5106352;28;20108;-61
2021/05/03 02:35:08;;;;;;;439.90;210.87;;;;;;;8.28;64.31;98871.72;5102430;28;20531;-61
2021/05/03 02:37:34;;;;;;;438.43;198.63;;;;;;;8.25;64.03;98881.09;5104471;28;20367;-61
2021/05/03 02:40:00;;;;;;;438.57;204.00;;;;;;;8.21;63.72;98881.97;5107015;28;20530;-61
2021/05/03 02:42:25;;;;;;;438.33;200.53;;;;;;;8.16;64.24;98884.56;5102540;28;20432;-61
2021/05/03 02:44:51;;;;;;;441.20;208.60;;;;;;;8.16;64.35;98886.25;5103661;28;20040;-61
2021/05/03 02:47:16;;;;;;;441.30;205.27;;;;;;;8.18;64.00;98882.88;5102842;28;20066;-61
2021/05/03 02:49:42;;;;;;;441.70;210.33;;;;;;;8.18;64.15;98900.75;5103529;28;20028;-61
2021/05/03 02:52:07;;;;;;;439.83;202.60;;;;;;;8.15;64.11;98900.72;5107359;28;20027;-61
2021/05/03 02:54:33;;;;;;;443.73;209.50;;;;;;;8.02;64.18;98886.31;5104153;28;20077;-61
2021/05/03 02:56:59;;;;;;;448.93;221.40;;;;;;;8.15;64.06;98905.00;5108428;28;20031;-61
2021/05/03 02:59:24;;;;;;;441.03;207.93;;;;;;;8.05;64.50;98896.53;5102691;28;20115;-61
2021/05/03 03:01:50;;;;;;;445.83;209.87;;;;;;;8.04;64.05;98910.16;5100113;28;20098;-61
2021/05/03 03:04:16;;;;;;;439.43;195.70;;;;;;;8.02;64.40;98900.81;5105841;27;20036;-61
2021/05/03 03:06:42;;;;;;;446.17;212.73;;;;;;;8.01;64.28;98914.44;5121872;27;20046;-61
2021/05/03 03:09:07;;;;;;;442.67;204.87;;;;;;;7.99;64.87;98914.44;5124145;27;20281;-61
2021/05/03 03:11:33;;;;;;;446.30;213.37;;;;;;;7.96;64.56;98919.56;5124558;27;20039;-61
2021/05/03 03:14:01;;;;;;;442.67;207.20;;;;;;;7.94;64.40;98922.94;5124544;27;20045;-61
2021/05/03 03:16:26;;;;;;;449.33;211.67;;;;;;;7.87;64.35;98918.75;5124055;27;20027;-61
2021/05/03 03:18:56;;;;;;;445.87;212.43;;;;;;;7.99;64.28;98926.34;5122721;27;20522;-60
2021/05/03 03:21:22;;;;;;;444.53;202.37;;;;;;;7.94;64.59;98934.03;5122104;27;20035;-61
2021/05/03 03:23:47;;;;;;;443.00;204.83;;;;;;;7.87;64.48;98929.81;5125687;27;20564;-61
2021/05/03 03:26:13;;;;;;;444.73;206.60;;;;;;;7.85;64.14;98939.16;5123642;27;20284;-61
2021/05/03 03:28:38;;;;;;;444.10;201.20;;;;;;;7.78;64.58;98932.38;5123503;27;20046;-61
2021/05/03 03:31:04;;;;;;;445.37;203.57;;;;;;;7.80;64.95;98946.00;5122400;27;20038;-61
2021/05/03 03:33:29;;;;;;;447.43;207.90;;;;;;;7.73;64.86;98950.25;5124162;27;20027;-61
2021/05/03 03:35:55;;;;;;;450.07;212.87;;;;;;;7.70;65.53;98949.41;5123753;27;20276;-64
2021/05/03 03:38:20;;;;;;;448.90;204.97;;;;;;;7.64;65.11;98951.97;5127791;27;20347;-60
2021/05/03 03:40:46;;;;;;;449.50;214.50;;;;;;;7.65;65.05;98951.13;5123804;27;20372;-61
2021/05/03 03:43:12;;;;;;;447.70;200.33;;;;;;;7.60;65.10;98961.34;5125415;27;20039;-61
2021/05/03 03:45:37;;;;;;;446.70;200.27;;;;;;;7.52;65.16;98968.16;5125920;27;20023;-61
2021/05/03 03:48:05;;;;;;;445.40;202.50;;;;;;;7.52;65.50;98965.59;5103530;27;20338;-61
2021/05/03 03:50:30;;;;;;;447.27;208.13;;;;;;;7.47;65.33;98976.69;5122595;27;20119;-61
2021/05/03 03:52:55;;;;;;;444.50;207.37;;;;;;;7.48;65.19;98973.25;5123186;27;20738;-61
2021/05/03 03:55:21;;;;;;;445.90;205.03;;;;;;;7.47;65.20;98984.34;5122244;27;20030;-60
2021/05/03 03:57:46;;;;;;;449.00;206.60;;;;;;;7.48;65.46;98978.38;5122437;27;20311;-62
2021/05/03 04:00:12;;;;;;;443.73;197.93;;;;;;;7.38;65.64;98982.66;5120293;27;20419;-61
2021/05/03 04:02:39;;;;;;;447.97;204.47;;;;;;;7.33;65.23;98976.69;5122479;27;20040;-61
2021/05/03 04:07:57;;;;;;;448.67;203.60;;;;;;;7.43;65.44;98980.06;5123074;28;20284;-61
2021/05/03 04:26:29;;;;;;;450.33;209.23;;;;;;;7.61;64.76;99000.47;5048232;28;20318;-61
2021/05/03 04:28:55;;;;;;;449.13;206.77;;;;;;;7.71;64.61;99002.16;5053221;28;20279;-61
2021/05/03 04:31:22;;;;;;;455.37;217.13;;;;;;;7.81;64.81;99004.69;5051102;28;20397;-61
2021/05/03 04:33:48;;;;;;;445.23;200.73;;;;;;;7.91;64.07;98999.56;5055321;28;20051;-61
2021/05/03 04:36:14;;;;;;;448.30;204.37;;;;;;;7.86;63.81;99008.91;5046819;28;20315;-61
2021/05/03 04:38:40;;;;;;;447.30;208.77;;;;;;;7.79;63.81;99010.66;5052182;28;20271;-60
2021/05/03 04:41:06;;;;;;;447.00;208.20;;;;;;;7.85;63.94;99004.69;5053080;28;20303;-61
2021/05/03 04:43:32;;;;;;;450.90;209.33;;;;;;;7.79;63.85;99005.53;5053979;28;20063;-63
2021/05/03 04:45:57;;;;;;;448.33;206.33;;;;;;;7.82;64.00;99011.50;5053390;28;20286;-61
2021/05/03 04:48:23;;;;;;;450.67;217.30;;;;;;;7.87;64.00;99016.59;5057970;28;20410;-61
2021/05/03 04:50:48;;;;;;;459.33;243.10;;;;;;;7.92;63.41;99016.56;5056678;28;20040;-62
2021/05/03 04:53:14;;;;;;;444.70;207.67;;;;;;;7.88;63.18;99015.75;5044567;28;20350;-62
2021/05/03 04:55:40;;;;;;;447.53;201.57;;;;;;;7.99;63.42;99013.16;5058376;28;20025;-62
2021/05/03 04:58:05;;;;;;;446.47;201.57;;;;;;;7.95;63.49;99008.91;5088075;27;20039;-62
2021/05/03 05:00:31;;;;;;;445.97;198.00;;;;;;;8.09;62.02;99018.25;5107184;27;20038;-61
2021/05/03 05:02:56;;;;;;;443.93;204.37;;;;;;;8.01;63.00;99016.56;5131444;27;20032;-62
2021/05/03 05:05:22;;;;;;;447.03;203.00;;;;;;;8.11;62.89;99019.06;5128024;27;20039;-64
2021/05/03 05:07:48;;;;;;;443.37;201.53;;;;;;;8.12;62.86;99022.47;5127244;27;20372;-65
2021/05/03 05:10:14;;;;;;;450.97;215.33;;;;;;;8.15;63.45;99032.66;5124849;27;20031;-64
2021/05/03 05:12:40;;;;;;;448.43;233.63;;;;;;;8.13;62.46;99031.84;5128933;27;20031;-65
2021/05/03 05:15:07;;;;;;;446.00;222.07;;;;;;;8.24;62.06;99035.19;5117248;27;20272;-65
2021/05/03 05:17:32;;;;;;;445.67;220.77;;;;;;;8.24;62.24;99036.06;5109584;27;20184;-65
2021/05/03 05:19:59;;;;;;;452.07;227.07;;;;;;;8.18;62.17;99040.34;5126175;27;20114;-65
2021/05/03 05:22:25;;;;;;;444.90;221.10;;;;;;;8.30;62.36;99034.38;5124965;27;20103;-65
2021/05/03 05:24:52;;;;;;;449.83;222.93;;;;;;;8.20;61.99;99041.19;5127288;27;20038;-66
2021/05/03 05:27:17;;;;;;;447.90;219.87;;;;;;;8.36;62.22;99047.13;5124916;27;20041;-65
2021/05/03 05:29:43;;;;;;;446.50;217.90;;;;;;;8.48;61.71;99047.09;5127338;27;20023;-65
2021/05/03 05:32:09;;;;;;;448.80;217.53;;;;;;;8.52;60.68;99057.28;5110945;27;20333;-68
2021/05/03 05:34:35;;;;;;;443.23;211.73;;;;;;;8.52;60.41;99061.56;5126052;27;20027;-66
2021/05/03 05:37:01;;;;;;;441.17;205.63;;;;;;;8.43;61.08;99061.56;5131104;27;20110;-65
2021/05/03 05:39:26;;;;;;;447.93;232.40;;;;;;;8.63;60.76;99073.41;5126106;27;20027;-64
2021/05/03 05:41:52;;;;;;;445.70;228.97;;;;;;;8.73;59.29;99065.72;5125880;27;20113;-64
2021/05/03 05:44:17;;;;;;;443.37;207.77;;;;;;;8.84;58.54;99062.25;5125951;27;20272;-64
2021/05/03 05:46:44;;;;;;;440.67;209.93;;;;;;;8.94;58.60;99071.56;5124398;27;20041;-63
2021/05/03 05:49:10;;;;;;;446.87;214.17;;;;;;;8.98;57.81;99057.91;5127002;27;20023;-63
2021/05/03 05:51:37;;;;;;;445.63;214.80;;;;;;;9.23;57.74;99071.38;5105671;27;20038;-64
2021/05/03 05:54:02;;;;;;;446.93;221.13;;;;;;;9.23;56.92;99080.78;5127289;27;20081;-63
2021/05/03 05:56:28;;;;;;;450.53;223.93;;;;;;;9.25;57.17;99081.63;5123766;27;20416;-62
2021/05/03 05:58:53;;;;;;;449.93;226.63;;;;;;;9.29;55.98;99083.31;5124669;27;20035;-62
2021/05/03 06:01:21;;;;;;;446.07;223.77;;;;;;;9.08;56.63;99086.84;5128795;27;20126;-63
2021/05/03 06:03:46;;;;;;;441.97;211.07;;;;;;;9.08;56.52;99085.13;5124880;27;20036;-63
2021/05/03 06:06:12;;;;;;;445.97;215.50;;;;;;;9.32;56.22;99081.56;5126314;27;20062;-63
2021/05/03 06:08:37;;;;;;;444.33;215.03;;;;;;;9.31;55.92;99089.25;5125093;27;20273;-65
2021/05/03 06:11:03;;;;;;;447.97;216.97;;;;;;;9.23;54.64;99094.41;5113488;27;20057;-66
2021/05/03 06:13:29;;;;;;;442.37;214.93;;;;;;;9.33;55.60;99084.97;5124420;27;20160;-63
2021/05/03 06:15:54;;;;;;;450.47;225.63;;;;;;;9.46;54.64;99096.84;5125282;27;20101;-63
2021/05/03 06:18:20;;;;;;;446.10;221.87;;;;;;;9.54;53.54;99089.94;5123656;27;20114;-63
2021/05/03 06:20:45;;;;;;;445.77;217.97;;;;;;;9.57;54.11;99095.03;5122740;27;20088;-62
2021/05/03 06:23:13;;;;;;;444.80;222.13;;;;;;;9.57;53.56;99095.03;5125349;27;20253;-63
2021/05/03 06:25:40;;;;;;;446.13;230.53;;;;;;;9.73;53.29;99095.75;5110772;27;20402;-62
2021/05/03 06:28:06;;;;;;;447.13;227.10;;;;;;;9.77;53.23;99094.88;5125087;27;20377;-62
2021/05/03 06:30:32;;;;;;;447.37;235.00;;;;;;;9.88;52.53;99101.63;5125591;27;20341;-62
2021/05/03 06:32:57;;;;;;;448.13;234.93;;;;;;;9.98;52.01;99110.03;5124140;27;20070;-62
2021/05/03 06:35:23;;;;;;;450.93;243.60;;;;;;;10.10;51.90;99110.78;5123777;27;20380;-62
2021/05/03 06:37:50;;;;;;;449.60;238.83;;;;;;;10.20;51.27;99120.97;5124094;27;20380;-62
2021/05/03 06:40:16;;;;;;;449.20;239.23;;;;;;;9.99;50.67;99107.47;5125225;27;20034;-62
2021/05/03 06:42:42;;;;;;;445.43;233.87;;;;;;;10.05;50.06;99129.63;5124629;27;20274;-63
2021/05/03 06:45:09;;;;;;;447.77;233.27;;;;;;;10.17;50.74;99108.22;5123169;27;20026;-63
2021/05/03 06:47:36;;;;;;;453.20;241.83;;;;;;;10.24;49.76;99114.97;5122075;27;20436;-63
2021/05/03 06:50:04;;;;;;;444.67;237.50;;;;;;;9.99;49.87;99117.72;5124226;27;20034;-62
2021/05/03 06:52:29;;;;;;;456.93;247.40;;;;;;;10.31;50.25;99114.88;5123914;27;20284;-63
2021/05/03 06:54:54;;;;;;;446.83;239.37;;;;;;;10.35;49.05;99136.22;5124694;27;20039;-63
2021/05/03 06:57:20;;;;;;;450.00;241.60;;;;;;;10.17;49.13;99123.59;5121077;27;20042;-62
2021/05/03 06:59:45;;;;;;;449.67;235.37;;;;;;;10.04;50.37;99141.59;5124657;27;20038;-63
2021/05/03 07:02:11;;;;;;;450.87;242.37;;;;;;;10.02;49.02;99127.94;5124045;27;20023;-62
2021/05/03 07:04:37;;;;;;;443.90;234.20;;;;;;;10.17;48.71;99129.56;5106389;27;20050;-64
2021/05/03 07:07:03;;;;;;;447.83;240.83;;;;;;;10.31;48.66;99126.88;5122563;27;20588;-62
2021/05/03 07:09:29;;;;;;;446.50;242.47;;;;;;;10.34;48.25;99139.66;5124146;27;20118;-62
2021/05/03 07:11:56;;;;;;;448.37;244.53;;;;;;;10.39;47.41;99130.19;5110193;27;20031;-63
2021/05/03 07:14:22;;;;;;;447.40;245.27;;;;;;;10.44;47.58;99138.66;5123415;27;20057;-62
2021/05/03 07:16:47;;;;;;;447.33;245.53;;;;;;;10.38;46.99;99138.75;5122120;27;20039;-62
2021/05/03 07:19:13;;;;;;;452.93;256.43;;;;;;;10.63;47.02;99147.88;5121424;27;20118;-63
2021/05/03 07:21:39;;;;;;;453.60;256.30;;;;;;;10.66;46.44;99137.56;5121278;27;20046;-62
2021/05/03 07:24:05;;;;;;;454.30;260.67;;;;;;;10.91;45.94;99135.56;5119989;27;20030;-63
2021/05/03 07:26:32;;;;;;;392.40;254.67;;;;;;;11.03;46.87;99142.28;5125187;27;20368;-63
2021/05/03 07:28:58;;;;;;;452.33;267.77;;;;;;;11.11;46.59;99140.47;5122514;27;20295;-63
2021/05/03 07:31:23;;;;;;;420.43;252.97;;;;;;;11.05;44.36;99153.38;5122714;27;20031;-63
2021/05/03 07:33:48;;;;;;;399.80;251.17;;;;;;;10.99;45.53;99149.16;5123828;27;20065;-63
2021/05/03 07:36:14;;;;;;;6.23;5.57;;;;;;;11.07;45.23;99147.38;5125834;27;20346;-63
2021/05/03 07:38:39;;;;;;;8.27;5.00;;;;;;;10.77;44.34;99146.00;5122933;27;20031;-63
2021/05/03 07:41:05;;;;;;;6.93;5.63;;;;;;;10.92;45.41;99143.25;5123224;27;20035;-63
2021/05/03 07:43:30;;;;;;;8.40;5.60;;;;;;;11.02;44.78;99135.44;5123619;27;20019;-63
2021/05/03 07:45:56;;;;;;;6.73;6.13;;;;;;;11.05;44.47;99145.66;5115919;27;20038;-63
2021/05/03 07:48:21;;;;;;;6.93;6.20;;;;;;;10.87;45.00;99150.16;5122789;27;20430;-63
2021/05/03 07:50:47;;;;;;;5.43;4.90;;;;;;;10.94;43.08;99131.28;5123948;27;20031;-62
2021/05/03 07:53:12;;;;;;;5.03;4.43;;;;;;;10.98;42.96;99150.03;5124466;27;20018;-62
2021/05/03 07:55:38;;;;;;;4.53;4.13;;;;;;;11.18;41.54;99145.50;5123321;27;20034;-62
2021/05/03 07:58:04;;;;;;;5.97;4.20;;;;;;;10.92;41.67;99138.13;5119913;27;20364;-62
2021/05/03 08:00:30;;;;;;;4.53;4.13;;;;;;;11.24;39.99;99154.84;5121059;27;20038;-63
2021/05/03 08:02:59;;;;;;;6.63;4.43;;;;;;;11.20;41.41;99140.34;5125298;27;20027;-63
2021/05/03 08:05:25;;;;;;;6.40;5.80;;;;;;;11.52;41.79;99142.47;5123987;27;20052;-63
2021/05/03 08:07:51;;;;;;;4.18;3.78;;;;;;;11.59;41.58;99154.31;5123025;28;20028;-63
2021/05/03 08:10:16;;;;;;;4.35;3.95;;;;;;;11.61;40.64;99168.00;5121585;28;20394;-63
2021/05/03 08:12:41;;;;;;;42.22;25.83;;;;;;;11.52;40.94;99153.59;5121717;28;20050;-63
2021/05/03 08:15:12;;;;;;;4.77;4.33;;;;;;;11.82;41.09;99160.00;5124236;27;20027;-63
2021/05/03 08:17:45;;;;;;;3.92;3.60;;;;;;;11.87;40.66;99169.34;5124098;28;20054;-63
2021/05/03 08:20:16;;;;;;;4.50;3.95;;;;;;;11.92;40.03;99160.72;5123202;28;20048;-63
2021/05/03 08:22:41;;;;;;;4.78;3.58;;;;;;;12.05;39.04;99159.66;5108295;27;20385;-64
2021/05/03 08:25:07;;;;;;;4.10;3.70;;;;;;;11.74;39.97;99167.84;5125065;27;20396;-63
2021/05/03 08:27:37;;;;;;;4.10;3.78;;;;;;;12.01;40.84;99163.97;5127072;27;20041;-63
2021/05/03 08:30:04;;;;;;;4.32;3.92;;;;;;;12.22;39.58;99168.75;5128826;27;20065;-63
2021/05/03 08:32:30;;;;;;;5.53;4.00;;;;;;;12.31;40.28;99154.91;5129471;27;20378;-62
2021/05/03 08:34:55;;;;;;;4.53;3.85;;;;;;;12.45;38.75;99158.06;5114855;27;20087;-63
2021/05/03 08:37:21;;;;;;;5.18;3.25;;;;;;;11.46;38.97;99162.22;5128750;27;20063;-63
2021/05/03 08:39:47;;;;;;;88.30;78.35;;;;;;;11.48;38.70;99164.75;5126606;27;20431;-63
2021/05/03 08:42:15;;;;;;;462.17;301.23;;;;;;;11.33;39.33;99165.00;5127778;27;20031;-63
2021/05/03 08:44:45;;;;;;;459.97;296.60;;;;;;;11.93;40.29;99162.41;5122863;27;20380;-63
2021/05/03 08:47:10;;;;;;;461.43;300.43;;;;;;;12.41;37.97;99163.31;5127968;27;20031;-63
2021/05/03 08:49:57;;;;;;;462.67;310.10;;;;;;;12.32;37.69;99162.59;5109492;27;20026;-63
2021/05/03 08:54:49;;;;;;;460.13;304.23;;;;;;;11.57;39.21;99151.78;5127860;27;20019;-63
2021/05/03 08:57:15;;;;;;;459.07;300.43;;;;;;;11.54;39.74;99164.69;5127167;27;20072;-62
2021/05/03 08:59:42;;;;;;;460.20;295.80;;;;;;;12.02;39.09;99163.09;5125658;27;20027;-62
2021/05/03 09:02:13;;;;;;;463.83;313.03;;;;;;;12.44;36.23;99160.66;5128279;27;20124;-62
2021/05/03 09:04:38;;;;;;;459.70;308.10;;;;;;;12.27;36.65;99166.97;5128773;27;20146;-62
2021/05/03 09:07:04;;;;;;;465.43;315.43;;;;;;;12.41;36.73;99171.88;5125987;27;20031;-62
2021/05/03 09:09:38;;;;;;;463.70;317.10;;;;;;;12.52;36.28;99171.69;5127716;27;20102;-62
2021/05/03 09:12:16;;;;;;;469.15;320.75;;;;;;;12.47;35.26;99161.47;5126362;27;20126;-65
2021/05/03 09:14:47;;;;;;;466.37;326.93;;;;;;;12.45;35.85;99162.38;5128087;27;20047;-62
2021/05/03 09:17:27;;;;;;;468.00;323.83;;;;;;;12.35;34.74;99172.81;5126527;27;20027;-62
2021/05/03 09:19:54;;;;;;;463.10;313.83;;;;;;;12.62;34.01;99148.34;5127360;27;20391;-62
2021/05/03 09:22:26;;;;;;;473.87;333.60;;;;;;;12.64;32.10;99146.59;5125786;27;20119;-62
2021/05/03 09:24:52;;;;;;;466.33;330.90;;;;;;;12.69;33.71;99152.47;5126649;27;20046;-62
2021/05/03 09:27:20;;;;;;;471.10;345.87;;;;;;;12.97;31.63;99149.38;5127614;27;20436;-62
2021/05/03 09:29:48;;;;;;;469.23;340.47;;;;;;;13.04;31.54;99123.47;5125171;27;20051;-62
2021/05/03 09:32:21;;;;;;;469.13;336.67;;;;;;;13.02;32.91;99138.09;5123948;27;20035;-62
2021/05/03 09:34:47;;;;;;;472.20;351.40;;;;;;;13.71;34.04;99135.72;5126330;27;20420;-62
2021/05/03 09:37:26;;;;;;;484.33;415.43;;;;;;;13.78;31.70;99125.28;5127517;27;20064;-62
2021/05/03 09:40:24;;;;;;;477.03;364.80;;;;;;;13.48;29.65;99140.56;5116977;27;20027;-62
2021/05/03 09:42:58;;;;;;;475.17;374.33;;;;;;;13.73;30.45;99108.19;5087458;27;20386;-62
2021/05/03 09:45:31;;;;;;;479.80;392.73;;;;;;;13.83;30.73;99118.28;5123944;27;20030;-62
2021/05/03 09:47:59;;;;;;;482.77;400.47;;;;;;;13.64;31.18;99112.72;5125168;27;20027;-62
2021/05/03 09:50:32;;;;;;;480.63;399.97;;;;;;;13.94;31.28;99113.69;5124960;27;20088;-62
2021/05/03 09:53:09;;;;;;;482.00;394.50;;;;;;;14.13;32.20;99115.78;5124490;27;20470;-63
2021/05/03 09:55:46;;;;;;;477.97;389.63;;;;;;;13.24;30.29;99126.47;5124656;27;20055;-62
2021/05/03 09:58:18;;;;;;;479.30;384.67;;;;;;;13.16;32.70;99119.81;5122632;27;20026;-62
2021/05/03 10:00:47;;;;;;;477.17;380.20;;;;;;;12.93;31.83;99115.13;5124716;27;20034;-62
2021/05/03 10:03:42;;;;;;;478.47;395.90;;;;;;;13.01;31.83;99102.09;5125462;27;20034;-62
2021/05/03 10:06:13;;;;;;;472.17;370.17;;;;;;;12.68;32.63;99122.50;5123220;27;20081;-62
2021/05/03 10:08:41;;;;;;;478.00;373.60;;;;;;;12.79;32.82;99109.41;5121781;27;20035;-62
2021/05/03 10:11:09;;;;;;;475.00;365.07;;;;;;;12.93;32.87;99103.97;5123616;27;20387;-62
2021/05/03 10:13:37;;;;;;;475.27;365.03;;;;;;;12.90;32.83;99106.63;5125958;27;20054;-62
2021/05/03 10:16:03;;;;;;;469.57;348.13;;;;;;;13.14;32.89;99098.41;5123903;27;20357;-62
2021/05/03 10:18:31;;;;;;;476.53;367.93;;;;;;;13.36;32.34;99080.75;5124599;27;20038;-62
2021/05/03 10:20:57;;;;;;;478.87;375.93;;;;;;;13.41;32.92;99100.34;5126398;27;20340;-62
2021/05/03 10:23:24;;;;;;;480.23;390.77;;;;;;;12.92;32.69;99082.53;5124826;27;20031;-62
2021/05/03 10:25:55;;;;;;;472.73;365.77;;;;;;;12.73;33.28;99088.97;5129279;27;20039;-62
2021/05/03 10:28:21;;;;;;;472.63;354.23;;;;;;;12.80;34.00;99103.38;5125329;27;20378;-62
2021/05/03 10:30:49;;;;;;;472.37;362.47;;;;;;;13.03;33.60;99090.03;5124502;27;20056;-62
2021/05/03 10:33:15;;;;;;;471.73;362.20;;;;;;;13.22;33.35;99107.66;5127196;27;20118;-62
2021/05/03 10:35:43;;;;;;;472.70;371.13;;;;;;;13.27;32.57;99092.97;5123539;27;20019;-62
2021/05/03 10:38:27;;;;;;;473.40;366.50;;;;;;;13.50;32.93;99094.16;5105879;27;20269;-63
2021/05/03 10:40:57;;;;;;;474.77;366.30;;;;;;;13.81;34.41;99096.84;5122710;27;20066;-62
2021/05/03 10:43:36;;;;;;;476.97;389.03;;;;;;;13.42;31.88;99107.22;5127349;27;20284;-62
2021/05/03 10:46:49;;;;;;;478.33;385.10;;;;;;;13.09;32.80;99101.06;5123635;27;20039;-62
2021/05/03 10:51:38;;;;;;;474.73;377.43;;;;;;;12.99;32.22;99096.13;5128636;27;20039;-63
2021/05/03 10:54:15;;;;;;;468.63;354.90;;;;;;;12.94;31.82;99121.13;5125784;27;20026;-63
2021/05/03 10:56:41;;;;;;;470.53;361.27;;;;;;;12.65;32.01;99089.09;5126581;27;20027;-63
2021/05/03 10:59:09;;;;;;;474.37;366.43;;;;;;;12.96;32.42;99076.44;5122832;27;20041;-63
2021/05/03 11:01:53;;;;;;;472.23;354.13;;;;;;;13.13;32.68;99082.13;5126800;27;20118;-62
2021/05/03 11:04:19;;;;;;;472.07;350.03;;;;;;;13.17;32.71;99082.88;5125701;27;20038;-63
2021/05/03 11:06:44;;;;;;;471.13;358.33;;;;;;;13.66;32.41;99093.75;5124687;27;20548;-62
2021/05/03 11:09:25;;;;;;;469.97;360.97;;;;;;;13.33;32.03;99091.97;5126103;27;20110;-62
2021/05/03 11:11:51;;;;;;;473.40;356.13;;;;;;;13.25;33.34;99086.13;5125409;27;20020;-62
2021/05/03 11:14:20;;;;;;;470.63;358.03;;;;;;;13.50;33.11;99082.13;5126220;27;20080;-62
2021/05/03 11:16:46;;;;;;;473.27;366.07;;;;;;;13.71;33.16;99079.03;5126232;27;20412;-61
2021/05/03 11:19:52;;;;;;;476.67;374.57;;;;;;;13.66;33.56;99073.13;5121139;27;20069;-61
2021/05/03 11:22:22;;;;;;;;;;;;;;;14.00;32.85;99080.06;5123274;27;20042;-62
2021/05/03 11:24:55;;;;;;;471.97;363.47;;;;;;;13.52;32.38;99080.38;5123446;27;19915;-62
2021/05/03 11:27:35;;;;;;;474.83;371.47;;;;;;;13.63;32.93;99087.81;5121364;27;20047;-61
2021/05/03 11:30:08;;;;;;;476.57;382.03;;;;;;;14.12;33.71;99085.75;5103919;27;20110;-61
2021/05/03 11:32:37;;;;;;;477.33;389.00;;;;;;;13.86;32.30;99085.53;5127024;27;20027;-61
2021/05/03 11:35:21;;;;;;;478.03;385.70;;;;;;;14.26;32.51;99077.63;5127542;27;20031;-62